sensor_id;sensor_type;location;lat;lon;timestamp;P1;durP1;ratioP1;P2;durP2;ratioP2
64282;SDS011;50497;50.720;-2.084;2024-02-23T00:00:03;7.75;;;1.40;;
64282;SDS011;50497;50.720;-2.084;2024-02-23T00:02:30;8.63;;;1.20;;
64282;SDS011;50497;50.720;-2.084;2024-02-23T00:04:56;7.68;;;1.10;;
64282;SDS011;50497;50.720;-2.084;2024-02-23T00:07:21;9.93;;;1.33;;
64282;SDS011;50497;50.720;-2.084;2024-02-23T00:09:47;8.35;;;1.50;;
64282;SDS011;50497;50.720;-2.084;2024-02-23T00:12:12;7.82;;;1.52;;
64282;SDS011;50497;50.720;-2.084;2024-02-23T00:14:38;10.63;;;1.33;;
64282;SDS011;50497;50.720;-2.084;2024-02-23T00:17:04;10.60;;;1.50;;
64282;SDS011;50497;50.720;-2.084;2024-02-23T00:19:30;9.05;;;1.42;;
64282;SDS011;50497;50.720;-2.084;2024-02-23T00:21:56;11.93;;;1.50;;
64282;SDS011;50497;50.720;-2.084;2024-02-23T00:24:24;11.60;;;1.75;;
64282;SDS011;50497;50.720;-2.084;2024-02-23T00:26:49;6.85;;;1.20;;
64282;SDS011;50497;50.720;-2.084;2024-02-23T00:29:16;10.55;;;2.35;;
64282;SDS011;50497;50.720;-2.084;2024-02-23T00:31:42;10.93;;;1.60;;
64282;SDS011;50497;50.720;-2.084;2024-02-23T00:34:07;11.43;;;1.48;;
64282;SDS011;50497;50.720;-2.084;2024-02-23T00:36:39;11.38;;;1.50;;
64282;SDS011;50497;50.720;-2.084;2024-02-23T00:39:06;7.53;;;1.42;;
64282;SDS011;50497;50.720;-2.084;2024-02-23T00:41:33;8.32;;;1.27;;
64282;SDS011;50497;50.720;-2.084;2024-02-23T00:43:58;8.27;;;1.15;;
64282;SDS011;50497;50.720;-2.084;2024-02-23T00:46:24;9.93;;;1.40;;
64282;SDS011;50497;50.720;-2.084;2024-02-23T00:51:16;8.52;;;1.20;;
64282;SDS011;50497;50.720;-2.084;2024-02-23T00:53:41;6.10;;;1.05;;
64282;SDS011;50497;50.720;-2.084;2024-02-23T00:56:07;9.15;;;1.10;;
64282;SDS011;50497;50.720;-2.084;2024-02-23T00:58:32;9.80;;;1.20;;
64282;SDS011;50497;50.720;-2.084;2024-02-23T01:00:58;3.90;;;0.98;;
64282;SDS011;50497;50.720;-2.084;2024-02-23T01:03:24;4.95;;;1.00;;
64282;SDS011;50497;50.720;-2.084;2024-02-23T01:05:49;5.88;;;0.88;;
64282;SDS011;50497;50.720;-2.084;2024-02-23T01:08:15;7.20;;;1.40;;
64282;SDS011;50497;50.720;-2.084;2024-02-23T01:10:40;7.47;;;1.40;;
64282;SDS011;50497;50.720;-2.084;2024-02-23T01:13:06;7.32;;;1.40;;
64282;SDS011;50497;50.720;-2.084;2024-02-23T01:15:31;4.72;;;1.20;;
64282;SDS011;50497;50.720;-2.084;2024-02-23T01:17:56;7.15;;;1.13;;
64282;SDS011;50497;50.720;-2.084;2024-02-23T01:20:22;6.95;;;1.15;;
64282;SDS011;50497;50.720;-2.084;2024-02-23T01:22:47;7.50;;;1.30;;
64282;SDS011;50497;50.720;-2.084;2024-02-23T01:25:13;6.03;;;1.35;;
64282;SDS011;50497;50.720;-2.084;2024-02-23T01:27:40;5.40;;;1.35;;
64282;SDS011;50497;50.720;-2.084;2024-02-23T01:30:06;4.47;;;1.27;;
64282;SDS011;50497;50.720;-2.084;2024-02-23T01:32:32;11.25;;;1.77;;
64282;SDS011;50497;50.720;-2.084;2024-02-23T01:34:58;15.43;;;1.58;;
64282;SDS011;50497;50.720;-2.084;2024-02-23T01:37:23;11.75;;;1.38;;
64282;SDS011;50497;50.720;-2.084;2024-02-23T01:39:48;8.68;;;1.30;;
64282;SDS011;50497;50.720;-2.084;2024-02-23T01:42:14;8.82;;;1.48;;
64282;SDS011;50497;50.720;-2.084;2024-02-23T01:44:39;7.80;;;1.25;;
64282;SDS011;50497;50.720;-2.084;2024-02-23T01:47:05;7.80;;;0.98;;
64282;SDS011;50497;50.720;-2.084;2024-02-23T01:49:30;6.70;;;1.10;;
64282;SDS011;50497;50.720;-2.084;2024-02-23T01:51:58;6.32;;;1.20;;
64282;SDS011;50497;50.720;-2.084;2024-02-23T01:54:24;11.60;;;1.63;;
64282;SDS011;50497;50.720;-2.084;2024-02-23T01:56:51;11.15;;;1.48;;
64282;SDS011;50497;50.720;-2.084;2024-02-23T01:59:17;13.73;;;2.55;;
64282;SDS011;50497;50.720;-2.084;2024-02-23T02:01:43;4.75;;;0.90;;
64282;SDS011;50497;50.720;-2.084;2024-02-23T02:04:09;10.82;;;1.38;;
64282;SDS011;50497;50.720;-2.084;2024-02-23T02:06:35;9.75;;;1.52;;
64282;SDS011;50497;50.720;-2.084;2024-02-23T02:09:01;8.45;;;1.50;;
64282;SDS011;50497;50.720;-2.084;2024-02-23T02:11:26;6.90;;;1.60;;
64282;SDS011;50497;50.720;-2.084;2024-02-23T02:13:52;12.02;;;1.83;;
64282;SDS011;50497;50.720;-2.084;2024-02-23T02:16:17;7.10;;;0.95;;
64282;SDS011;50497;50.720;-2.084;2024-02-23T02:18:42;11.73;;;1.20;;
64282;SDS011;50497;50.720;-2.084;2024-02-23T02:21:09;3.97;;;0.90;;
64282;SDS011;50497;50.720;-2.084;2024-02-23T02:23:35;5.55;;;1.17;;
64282;SDS011;50497;50.720;-2.084;2024-02-23T02:26:02;5.72;;;1.17;;
64282;SDS011;50497;50.720;-2.084;2024-02-23T02:28:28;10.50;;;1.83;;
64282;SDS011;50497;50.720;-2.084;2024-02-23T02:30:53;5.85;;;1.05;;
64282;SDS011;50497;50.720;-2.084;2024-02-23T02:33:19;7.25;;;1.02;;
64282;SDS011;50497;50.720;-2.084;2024-02-23T02:35:44;7.45;;;1.50;;
64282;SDS011;50497;50.720;-2.084;2024-02-23T02:38:10;3.03;;;0.95;;
64282;SDS011;50497;50.720;-2.084;2024-02-23T02:40:36;4.45;;;1.20;;
64282;SDS011;50497;50.720;-2.084;2024-02-23T02:43:02;4.18;;;0.98;;
64282;SDS011;50497;50.720;-2.084;2024-02-23T02:45:28;10.68;;;1.33;;
64282;SDS011;50497;50.720;-2.084;2024-02-23T02:47:53;9.13;;;1.25;;
64282;SDS011;50497;50.720;-2.084;2024-02-23T02:50:19;7.75;;;1.20;;
64282;SDS011;50497;50.720;-2.084;2024-02-23T02:52:44;7.78;;;1.30;;
64282;SDS011;50497;50.720;-2.084;2024-02-23T02:55:09;5.80;;;0.93;;
64282;SDS011;50497;50.720;-2.084;2024-02-23T02:57:35;5.55;;;1.10;;
64282;SDS011;50497;50.720;-2.084;2024-02-23T03:00:03;4.93;;;1.42;;
64282;SDS011;50497;50.720;-2.084;2024-02-23T03:04:58;7.53;;;1.33;;
64282;SDS011;50497;50.720;-2.084;2024-02-23T03:07:24;7.47;;;1.52;;
64282;SDS011;50497;50.720;-2.084;2024-02-23T03:09:49;3.85;;;0.90;;
64282;SDS011;50497;50.720;-2.084;2024-02-23T03:12:15;6.65;;;1.15;;
64282;SDS011;50497;50.720;-2.084;2024-02-23T03:14:42;5.20;;;1.25;;
64282;SDS011;50497;50.720;-2.084;2024-02-23T03:17:07;6.00;;;1.30;;
64282;SDS011;50497;50.720;-2.084;2024-02-23T03:19:36;6.00;;;0.98;;
64282;SDS011;50497;50.720;-2.084;2024-02-23T03:22:02;5.53;;;1.08;;
64282;SDS011;50497;50.720;-2.084;2024-02-23T03:24:28;7.45;;;1.20;;
64282;SDS011;50497;50.720;-2.084;2024-02-23T03:26:53;3.42;;;0.80;;
64282;SDS011;50497;50.720;-2.084;2024-02-23T03:29:20;5.82;;;1.58;;
64282;SDS011;50497;50.720;-2.084;2024-02-23T03:31:47;9.05;;;1.35;;
64282;SDS011;50497;50.720;-2.084;2024-02-23T03:34:12;9.02;;;1.10;;
64282;SDS011;50497;50.720;-2.084;2024-02-23T03:36:38;6.18;;;1.10;;
64282;SDS011;50497;50.720;-2.084;2024-02-23T03:39:03;7.15;;;1.00;;
64282;SDS011;50497;50.720;-2.084;2024-02-23T03:41:29;7.13;;;1.10;;
64282;SDS011;50497;50.720;-2.084;2024-02-23T03:43:54;8.50;;;1.10;;
64282;SDS011;50497;50.720;-2.084;2024-02-23T03:46:20;6.80;;;1.15;;
64282;SDS011;50497;50.720;-2.084;2024-02-23T03:48:46;5.88;;;1.05;;
64282;SDS011;50497;50.720;-2.084;2024-02-23T03:51:11;6.25;;;1.00;;
64282;SDS011;50497;50.720;-2.084;2024-02-23T03:53:37;6.78;;;1.55;;
64282;SDS011;50497;50.720;-2.084;2024-02-23T03:56:02;6.60;;;1.40;;
64282;SDS011;50497;50.720;-2.084;2024-02-23T03:58:28;7.90;;;1.35;;
64282;SDS011;50497;50.720;-2.084;2024-02-23T04:00:54;8.52;;;1.40;;
64282;SDS011;50497;50.720;-2.084;2024-02-23T04:03:19;6.07;;;1.02;;
64282;SDS011;50497;50.720;-2.084;2024-02-23T04:05:45;7.00;;;1.10;;
64282;SDS011;50497;50.720;-2.084;2024-02-23T04:08:10;6.15;;;1.10;;
64282;SDS011;50497;50.720;-2.084;2024-02-23T04:10:36;7.95;;;1.30;;
64282;SDS011;50497;50.720;-2.084;2024-02-23T04:13:01;4.53;;;0.90;;
64282;SDS011;50497;50.720;-2.084;2024-02-23T04:15:27;9.55;;;1.40;;
64282;SDS011;50497;50.720;-2.084;2024-02-23T04:17:52;5.45;;;1.10;;
64282;SDS011;50497;50.720;-2.084;2024-02-23T04:20:18;7.05;;;1.10;;
64282;SDS011;50497;50.720;-2.084;2024-02-23T04:22:43;8.35;;;1.23;;
64282;SDS011;50497;50.720;-2.084;2024-02-23T04:25:09;4.22;;;0.93;;
64282;SDS011;50497;50.720;-2.084;2024-02-23T04:27:35;6.38;;;1.00;;
64282;SDS011;50497;50.720;-2.084;2024-02-23T04:30:00;7.13;;;0.98;;
64282;SDS011;50497;50.720;-2.084;2024-02-23T04:32:26;6.03;;;1.10;;
64282;SDS011;50497;50.720;-2.084;2024-02-23T04:34:51;6.47;;;1.08;;
64282;SDS011;50497;50.720;-2.084;2024-02-23T04:37:16;7.15;;;1.17;;
64282;SDS011;50497;50.720;-2.084;2024-02-23T04:39:43;5.63;;;1.08;;
64282;SDS011;50497;50.720;-2.084;2024-02-23T04:42:09;6.82;;;1.30;;
64282;SDS011;50497;50.720;-2.084;2024-02-23T04:44:35;5.85;;;1.30;;
64282;SDS011;50497;50.720;-2.084;2024-02-23T04:47:00;5.82;;;1.40;;
64282;SDS011;50497;50.720;-2.084;2024-02-23T04:49:26;5.75;;;1.00;;
64282;SDS011;50497;50.720;-2.084;2024-02-23T04:51:52;5.50;;;1.20;;
64282;SDS011;50497;50.720;-2.084;2024-02-23T04:54:17;8.23;;;1.00;;
64282;SDS011;50497;50.720;-2.084;2024-02-23T04:56:43;5.95;;;1.00;;
64282;SDS011;50497;50.720;-2.084;2024-02-23T04:59:08;7.15;;;1.10;;
64282;SDS011;50497;50.720;-2.084;2024-02-23T05:01:37;3.30;;;0.77;;
64282;SDS011;50497;50.720;-2.084;2024-02-23T05:04:03;7.20;;;1.00;;
64282;SDS011;50497;50.720;-2.084;2024-02-23T05:06:29;7.95;;;1.20;;
64282;SDS011;50497;50.720;-2.084;2024-02-23T05:08:55;8.75;;;1.40;;
64282;SDS011;50497;50.720;-2.084;2024-02-23T05:11:20;7.53;;;1.27;;
64282;SDS011;50497;50.720;-2.084;2024-02-23T05:13:45;6.00;;;1.10;;
64282;SDS011;50497;50.720;-2.084;2024-02-23T05:16:11;7.65;;;1.50;;
64282;SDS011;50497;50.720;-2.084;2024-02-23T05:23:29;10.13;;;1.30;;
64282;SDS011;50497;50.720;-2.084;2024-02-23T05:25:54;4.30;;;1.00;;
64282;SDS011;50497;50.720;-2.084;2024-02-23T05:28:19;8.48;;;1.50;;
64282;SDS011;50497;50.720;-2.084;2024-02-23T05:30:45;7.72;;;1.42;;
64282;SDS011;50497;50.720;-2.084;2024-02-23T05:33:10;7.72;;;1.23;;
64282;SDS011;50497;50.720;-2.084;2024-02-23T05:35:36;11.80;;;1.52;;
64282;SDS011;50497;50.720;-2.084;2024-02-23T05:38:02;8.48;;;1.40;;
64282;SDS011;50497;50.720;-2.084;2024-02-23T05:40:27;4.60;;;1.10;;
64282;SDS011;50497;50.720;-2.084;2024-02-23T05:42:52;7.82;;;1.15;;
64282;SDS011;50497;50.720;-2.084;2024-02-23T05:47:45;8.25;;;1.20;;
64282;SDS011;50497;50.720;-2.084;2024-02-23T05:50:10;6.35;;;1.20;;
64282;SDS011;50497;50.720;-2.084;2024-02-23T05:52:36;7.57;;;1.40;;
64282;SDS011;50497;50.720;-2.084;2024-02-23T05:55:02;4.40;;;1.42;;
64282;SDS011;50497;50.720;-2.084;2024-02-23T05:57:28;5.15;;;1.25;;
64282;SDS011;50497;50.720;-2.084;2024-02-23T05:59:55;7.15;;;1.25;;
64282;SDS011;50497;50.720;-2.084;2024-02-23T06:02:20;8.63;;;1.50;;
64282;SDS011;50497;50.720;-2.084;2024-02-23T06:04:47;8.95;;;1.30;;
64282;SDS011;50497;50.720;-2.084;2024-02-23T06:07:13;7.75;;;1.58;;
64282;SDS011;50497;50.720;-2.084;2024-02-23T06:09:40;9.13;;;1.88;;
64282;SDS011;50497;50.720;-2.084;2024-02-23T06:12:06;6.93;;;1.35;;
64282;SDS011;50497;50.720;-2.084;2024-02-23T06:14:32;9.18;;;1.35;;
64282;SDS011;50497;50.720;-2.084;2024-02-23T06:16:57;9.43;;;1.50;;
64282;SDS011;50497;50.720;-2.084;2024-02-23T06:19:23;9.80;;;1.50;;
64282;SDS011;50497;50.720;-2.084;2024-02-23T06:21:48;7.95;;;1.45;;
64282;SDS011;50497;50.720;-2.084;2024-02-23T06:24:15;11.82;;;1.42;;
64282;SDS011;50497;50.720;-2.084;2024-02-23T06:26:43;7.72;;;1.33;;
64282;SDS011;50497;50.720;-2.084;2024-02-23T06:29:08;9.10;;;1.35;;
64282;SDS011;50497;50.720;-2.084;2024-02-23T06:31:38;6.63;;;1.13;;
64282;SDS011;50497;50.720;-2.084;2024-02-23T06:34:04;6.35;;;1.20;;
64282;SDS011;50497;50.720;-2.084;2024-02-23T06:36:33;7.07;;;1.20;;
64282;SDS011;50497;50.720;-2.084;2024-02-23T06:38:59;5.85;;;1.17;;
64282;SDS011;50497;50.720;-2.084;2024-02-23T06:41:24;6.22;;;1.10;;
64282;SDS011;50497;50.720;-2.084;2024-02-23T06:43:50;3.78;;;1.10;;
64282;SDS011;50497;50.720;-2.084;2024-02-23T06:46:18;6.18;;;1.30;;
64282;SDS011;50497;50.720;-2.084;2024-02-23T06:48:45;5.75;;;1.00;;
64282;SDS011;50497;50.720;-2.084;2024-02-23T06:51:10;6.18;;;1.17;;
64282;SDS011;50497;50.720;-2.084;2024-02-23T06:53:36;9.05;;;1.08;;
64282;SDS011;50497;50.720;-2.084;2024-02-23T07:00:53;4.83;;;1.00;;
64282;SDS011;50497;50.720;-2.084;2024-02-23T07:03:19;8.15;;;1.50;;
64282;SDS011;50497;50.720;-2.084;2024-02-23T07:05:44;6.95;;;1.20;;
64282;SDS011;50497;50.720;-2.084;2024-02-23T07:08:11;4.05;;;1.02;;
64282;SDS011;50497;50.720;-2.084;2024-02-23T07:10:36;7.35;;;1.38;;
64282;SDS011;50497;50.720;-2.084;2024-02-23T07:13:02;4.95;;;1.00;;
64282;SDS011;50497;50.720;-2.084;2024-02-23T07:15:27;8.82;;;1.75;;
64282;SDS011;50497;50.720;-2.084;2024-02-23T07:17:53;7.75;;;1.30;;
64282;SDS011;50497;50.720;-2.084;2024-02-23T07:20:18;8.27;;;1.20;;
64282;SDS011;50497;50.720;-2.084;2024-02-23T07:22:44;4.95;;;1.20;;
64282;SDS011;50497;50.720;-2.084;2024-02-23T07:25:16;8.02;;;1.38;;
64282;SDS011;50497;50.720;-2.084;2024-02-23T07:27:42;8.15;;;1.42;;
64282;SDS011;50497;50.720;-2.084;2024-02-23T07:30:08;9.15;;;1.65;;
64282;SDS011;50497;50.720;-2.084;2024-02-23T07:32:34;5.18;;;1.00;;
64282;SDS011;50497;50.720;-2.084;2024-02-23T07:35:00;7.47;;;1.20;;
64282;SDS011;50497;50.720;-2.084;2024-02-23T07:37:26;6.80;;;1.02;;
64282;SDS011;50497;50.720;-2.084;2024-02-23T07:39:52;12.23;;;2.00;;
64282;SDS011;50497;50.720;-2.084;2024-02-23T07:42:18;13.13;;;2.08;;
64282;SDS011;50497;50.720;-2.084;2024-02-23T07:44:44;5.43;;;1.30;;
64282;SDS011;50497;50.720;-2.084;2024-02-23T07:47:09;7.90;;;1.40;;
64282;SDS011;50497;50.720;-2.084;2024-02-23T07:49:36;5.63;;;1.27;;
64282;SDS011;50497;50.720;-2.084;2024-02-23T07:52:01;8.18;;;1.80;;
64282;SDS011;50497;50.720;-2.084;2024-02-23T07:54:27;8.15;;;1.45;;
64282;SDS011;50497;50.720;-2.084;2024-02-23T07:56:52;5.90;;;1.02;;
64282;SDS011;50497;50.720;-2.084;2024-02-23T07:59:18;8.85;;;1.77;;
64282;SDS011;50497;50.720;-2.084;2024-02-23T08:01:43;9.68;;;1.42;;
64282;SDS011;50497;50.720;-2.084;2024-02-23T08:04:09;8.13;;;1.65;;
64282;SDS011;50497;50.720;-2.084;2024-02-23T08:06:34;7.82;;;1.48;;
64282;SDS011;50497;50.720;-2.084;2024-02-23T08:08:59;6.00;;;1.25;;
64282;SDS011;50497;50.720;-2.084;2024-02-23T08:11:25;8.05;;;1.60;;
64282;SDS011;50497;50.720;-2.084;2024-02-23T08:13:50;8.82;;;1.40;;
64282;SDS011;50497;50.720;-2.084;2024-02-23T08:16:16;9.57;;;1.83;;
64282;SDS011;50497;50.720;-2.084;2024-02-23T08:18:42;10.20;;;1.27;;
64282;SDS011;50497;50.720;-2.084;2024-02-23T08:21:09;10.85;;;1.38;;
64282;SDS011;50497;50.720;-2.084;2024-02-23T08:23:35;9.82;;;1.50;;
64282;SDS011;50497;50.720;-2.084;2024-02-23T08:26:01;7.53;;;1.50;;
64282;SDS011;50497;50.720;-2.084;2024-02-23T08:28:26;9.65;;;1.75;;
64282;SDS011;50497;50.720;-2.084;2024-02-23T08:30:52;10.52;;;1.50;;
64282;SDS011;50497;50.720;-2.084;2024-02-23T08:33:18;8.82;;;1.70;;
64282;SDS011;50497;50.720;-2.084;2024-02-23T08:35:43;7.50;;;1.67;;
64282;SDS011;50497;50.720;-2.084;2024-02-23T08:38:09;11.48;;;2.45;;
64282;SDS011;50497;50.720;-2.084;2024-02-23T08:40:34;10.68;;;1.70;;
64282;SDS011;50497;50.720;-2.084;2024-02-23T08:43:00;11.90;;;1.50;;
64282;SDS011;50497;50.720;-2.084;2024-02-23T08:45:25;6.20;;;1.13;;
64282;SDS011;50497;50.720;-2.084;2024-02-23T08:47:51;10.68;;;1.92;;
64282;SDS011;50497;50.720;-2.084;2024-02-23T08:50:16;9.43;;;1.52;;
64282;SDS011;50497;50.720;-2.084;2024-02-23T08:52:42;7.93;;;1.63;;
64282;SDS011;50497;50.720;-2.084;2024-02-23T08:55:07;7.50;;;1.42;;
64282;SDS011;50497;50.720;-2.084;2024-02-23T08:57:33;8.98;;;1.48;;
64282;SDS011;50497;50.720;-2.084;2024-02-23T08:59:59;8.35;;;1.63;;
64282;SDS011;50497;50.720;-2.084;2024-02-23T09:02:24;8.27;;;1.50;;
64282;SDS011;50497;50.720;-2.084;2024-02-23T09:04:50;5.63;;;1.20;;
64282;SDS011;50497;50.720;-2.084;2024-02-23T09:07:16;7.82;;;1.50;;
64282;SDS011;50497;50.720;-2.084;2024-02-23T09:09:45;5.85;;;1.17;;
64282;SDS011;50497;50.720;-2.084;2024-02-23T09:12:10;7.13;;;1.42;;
64282;SDS011;50497;50.720;-2.084;2024-02-23T09:14:36;7.10;;;1.60;;
64282;SDS011;50497;50.720;-2.084;2024-02-23T09:17:03;5.68;;;1.38;;
64282;SDS011;50497;50.720;-2.084;2024-02-23T09:19:30;8.05;;;1.15;;
64282;SDS011;50497;50.720;-2.084;2024-02-23T09:21:56;5.43;;;0.98;;
64282;SDS011;50497;50.720;-2.084;2024-02-23T09:24:21;5.72;;;1.20;;
64282;SDS011;50497;50.720;-2.084;2024-02-23T09:26:47;4.18;;;0.82;;
64282;SDS011;50497;50.720;-2.084;2024-02-23T09:29:12;9.20;;;3.30;;
64282;SDS011;50497;50.720;-2.084;2024-02-23T09:31:38;6.15;;;1.10;;
64282;SDS011;50497;50.720;-2.084;2024-02-23T09:34:03;6.97;;;0.90;;
64282;SDS011;50497;50.720;-2.084;2024-02-23T09:36:29;7.78;;;1.10;;
64282;SDS011;50497;50.720;-2.084;2024-02-23T09:38:55;4.03;;;0.95;;
64282;SDS011;50497;50.720;-2.084;2024-02-23T09:41:21;4.00;;;0.93;;
64282;SDS011;50497;50.720;-2.084;2024-02-23T09:43:48;3.22;;;0.77;;
64282;SDS011;50497;50.720;-2.084;2024-02-23T09:46:17;4.05;;;0.80;;
64282;SDS011;50497;50.720;-2.084;2024-02-23T09:48:43;5.13;;;1.00;;
64282;SDS011;50497;50.720;-2.084;2024-02-23T09:51:10;8.50;;;1.23;;
64282;SDS011;50497;50.720;-2.084;2024-02-23T09:53:37;5.20;;;1.08;;
64282;SDS011;50497;50.720;-2.084;2024-02-23T09:56:04;6.35;;;1.00;;
64282;SDS011;50497;50.720;-2.084;2024-02-23T09:58:34;6.88;;;1.00;;
64282;SDS011;50497;50.720;-2.084;2024-02-23T10:01:01;4.85;;;0.80;;
64282;SDS011;50497;50.720;-2.084;2024-02-23T10:03:28;4.13;;;0.82;;
64282;SDS011;50497;50.720;-2.084;2024-02-23T10:05:55;1.55;;;0.57;;
64282;SDS011;50497;50.720;-2.084;2024-02-23T10:08:28;2.90;;;0.93;;
64282;SDS011;50497;50.720;-2.084;2024-02-23T10:10:54;5.93;;;1.10;;
64282;SDS011;50497;50.720;-2.084;2024-02-23T10:13:20;5.65;;;0.90;;
64282;SDS011;50497;50.720;-2.084;2024-02-23T10:15:47;4.22;;;0.80;;
64282;SDS011;50497;50.720;-2.084;2024-02-23T10:18:13;4.63;;;0.80;;
64282;SDS011;50497;50.720;-2.084;2024-02-23T10:23:05;2.70;;;0.80;;
64282;SDS011;50497;50.720;-2.084;2024-02-23T10:25:33;2.55;;;0.63;;
64282;SDS011;50497;50.720;-2.084;2024-02-23T10:27:58;3.83;;;0.90;;
64282;SDS011;50497;50.720;-2.084;2024-02-23T10:30:26;4.35;;;0.55;;
64282;SDS011;50497;50.720;-2.084;2024-02-23T10:32:53;2.50;;;0.65;;
64282;SDS011;50497;50.720;-2.084;2024-02-23T10:35:21;3.63;;;0.60;;
64282;SDS011;50497;50.720;-2.084;2024-02-23T10:37:48;4.97;;;0.70;;
64282;SDS011;50497;50.720;-2.084;2024-02-23T10:40:17;1.52;;;0.50;;
64282;SDS011;50497;50.720;-2.084;2024-02-23T10:45:12;1.75;;;0.75;;
64282;SDS011;50497;50.720;-2.084;2024-02-23T10:47:41;5.68;;;0.80;;
64282;SDS011;50497;50.720;-2.084;2024-02-23T10:50:07;3.55;;;1.10;;
64282;SDS011;50497;50.720;-2.084;2024-02-23T10:52:33;3.10;;;1.00;;
64282;SDS011;50497;50.720;-2.084;2024-02-23T10:55:00;4.13;;;0.90;;
64282;SDS011;50497;50.720;-2.084;2024-02-23T10:57:29;2.10;;;0.52;;
64282;SDS011;50497;50.720;-2.084;2024-02-23T10:59:56;1.88;;;0.50;;
64282;SDS011;50497;50.720;-2.084;2024-02-23T11:02:22;3.97;;;0.98;;
64282;SDS011;50497;50.720;-2.084;2024-02-23T11:04:49;4.30;;;0.70;;
64282;SDS011;50497;50.720;-2.084;2024-02-23T11:07:17;1.55;;;0.75;;
64282;SDS011;50497;50.720;-2.084;2024-02-23T11:09:54;4.07;;;0.77;;
64282;SDS011;50497;50.720;-2.084;2024-02-23T11:12:29;2.22;;;0.70;;
64282;SDS011;50497;50.720;-2.084;2024-02-23T11:14:58;1.98;;;0.80;;
64282;SDS011;50497;50.720;-2.084;2024-02-23T11:17:31;5.15;;;0.95;;
64282;SDS011;50497;50.720;-2.084;2024-02-23T11:20:02;2.08;;;0.50;;
64282;SDS011;50497;50.720;-2.084;2024-02-23T11:22:33;2.33;;;0.65;;
64282;SDS011;50497;50.720;-2.084;2024-02-23T11:25:03;1.23;;;0.65;;
64282;SDS011;50497;50.720;-2.084;2024-02-23T11:27:31;7.13;;;0.95;;
64282;SDS011;50497;50.720;-2.084;2024-02-23T11:30:04;1.65;;;0.40;;
64282;SDS011;50497;50.720;-2.084;2024-02-23T11:32:40;3.13;;;0.80;;
64282;SDS011;50497;50.720;-2.084;2024-02-23T11:35:12;1.50;;;0.70;;
64282;SDS011;50497;50.720;-2.084;2024-02-23T11:40:14;4.15;;;0.65;;
64282;SDS011;50497;50.720;-2.084;2024-02-23T11:42:42;1.92;;;0.68;;
64282;SDS011;50497;50.720;-2.084;2024-02-23T11:45:08;2.97;;;1.30;;
64282;SDS011;50497;50.720;-2.084;2024-02-23T11:47:34;1.17;;;0.50;;
64282;SDS011;50497;50.720;-2.084;2024-02-23T11:50:01;4.55;;;1.05;;
64282;SDS011;50497;50.720;-2.084;2024-02-23T11:52:26;2.72;;;0.80;;
64282;SDS011;50497;50.720;-2.084;2024-02-23T11:54:51;3.03;;;0.80;;
64282;SDS011;50497;50.720;-2.084;2024-02-23T11:57:17;3.78;;;0.82;;
64282;SDS011;50497;50.720;-2.084;2024-02-23T11:59:43;2.55;;;0.80;;
64282;SDS011;50497;50.720;-2.084;2024-02-23T12:02:09;4.00;;;0.90;;
64282;SDS011;50497;50.720;-2.084;2024-02-23T12:04:34;0.90;;;0.52;;
64282;SDS011;50497;50.720;-2.084;2024-02-23T12:07:00;1.67;;;0.30;;
64282;SDS011;50497;50.720;-2.084;2024-02-23T12:09:26;1.55;;;0.52;;
64282;SDS011;50497;50.720;-2.084;2024-02-23T12:11:51;1.55;;;0.43;;
64282;SDS011;50497;50.720;-2.084;2024-02-23T12:14:17;0.98;;;0.30;;
64282;SDS011;50497;50.720;-2.084;2024-02-23T12:16:42;1.08;;;0.52;;
64282;SDS011;50497;50.720;-2.084;2024-02-23T12:19:08;2.78;;;0.60;;
64282;SDS011;50497;50.720;-2.084;2024-02-23T12:21:34;0.85;;;0.38;;
64282;SDS011;50497;50.720;-2.084;2024-02-23T12:24:03;2.70;;;1.00;;
64282;SDS011;50497;50.720;-2.084;2024-02-23T12:26:29;2.30;;;0.68;;
64282;SDS011;50497;50.720;-2.084;2024-02-23T12:29:00;0.90;;;0.43;;
64282;SDS011;50497;50.720;-2.084;2024-02-23T12:31:27;2.42;;;0.43;;
64282;SDS011;50497;50.720;-2.084;2024-02-23T12:33:53;0.90;;;0.30;;
64282;SDS011;50497;50.720;-2.084;2024-02-23T12:36:18;1.45;;;0.50;;
64282;SDS011;50497;50.720;-2.084;2024-02-23T12:38:44;1.92;;;0.45;;
64282;SDS011;50497;50.720;-2.084;2024-02-23T12:41:09;1.80;;;0.47;;
64282;SDS011;50497;50.720;-2.084;2024-02-23T12:43:36;1.63;;;0.47;;
64282;SDS011;50497;50.720;-2.084;2024-02-23T12:46:01;1.08;;;0.50;;
64282;SDS011;50497;50.720;-2.084;2024-02-23T12:48:28;1.05;;;0.43;;
64282;SDS011;50497;50.720;-2.084;2024-02-23T12:50:54;0.57;;;0.55;;
64282;SDS011;50497;50.720;-2.084;2024-02-23T12:53:41;1.02;;;0.28;;
64282;SDS011;50497;50.720;-2.084;2024-02-23T12:56:11;1.67;;;0.47;;
64282;SDS011;50497;50.720;-2.084;2024-02-23T12:58:39;1.23;;;0.50;;
64282;SDS011;50497;50.720;-2.084;2024-02-23T13:01:06;1.33;;;0.70;;
64282;SDS011;50497;50.720;-2.084;2024-02-23T13:03:32;2.20;;;0.60;;
64282;SDS011;50497;50.720;-2.084;2024-02-23T13:06:02;1.30;;;0.50;;
64282;SDS011;50497;50.720;-2.084;2024-02-23T13:08:28;1.90;;;0.57;;
64282;SDS011;50497;50.720;-2.084;2024-02-23T13:10:54;3.22;;;0.90;;
64282;SDS011;50497;50.720;-2.084;2024-02-23T13:13:20;2.05;;;0.50;;
64282;SDS011;50497;50.720;-2.084;2024-02-23T13:15:46;1.98;;;0.80;;
64282;SDS011;50497;50.720;-2.084;2024-02-23T13:18:13;2.38;;;0.60;;
64282;SDS011;50497;50.720;-2.084;2024-02-23T13:20:39;1.75;;;0.52;;
64282;SDS011;50497;50.720;-2.084;2024-02-23T13:23:06;2.72;;;0.60;;
64282;SDS011;50497;50.720;-2.084;2024-02-23T13:25:34;2.25;;;0.50;;
64282;SDS011;50497;50.720;-2.084;2024-02-23T13:28:02;0.93;;;0.60;;
64282;SDS011;50497;50.720;-2.084;2024-02-23T13:30:29;2.40;;;0.80;;
64282;SDS011;50497;50.720;-2.084;2024-02-23T13:32:55;1.90;;;0.65;;
64282;SDS011;50497;50.720;-2.084;2024-02-23T13:35:20;4.07;;;0.70;;
64282;SDS011;50497;50.720;-2.084;2024-02-23T13:37:47;3.30;;;0.50;;
64282;SDS011;50497;50.720;-2.084;2024-02-23T13:40:13;3.13;;;0.60;;
64282;SDS011;50497;50.720;-2.084;2024-02-23T13:42:38;0.88;;;0.22;;
64282;SDS011;50497;50.720;-2.084;2024-02-23T13:45:08;2.17;;;0.50;;
64282;SDS011;50497;50.720;-2.084;2024-02-23T13:47:36;1.63;;;0.60;;
64282;SDS011;50497;50.720;-2.084;2024-02-23T13:50:02;1.83;;;0.60;;
64282;SDS011;50497;50.720;-2.084;2024-02-23T13:52:28;1.50;;;0.57;;
64282;SDS011;50497;50.720;-2.084;2024-02-23T13:54:55;1.05;;;0.60;;
64282;SDS011;50497;50.720;-2.084;2024-02-23T13:57:20;1.08;;;0.32;;
64282;SDS011;50497;50.720;-2.084;2024-02-23T13:59:45;1.73;;;0.90;;
64282;SDS011;50497;50.720;-2.084;2024-02-23T14:02:11;2.50;;;0.60;;
64282;SDS011;50497;50.720;-2.084;2024-02-23T14:04:36;2.05;;;0.55;;
64282;SDS011;50497;50.720;-2.084;2024-02-23T14:07:02;3.72;;;0.60;;
64282;SDS011;50497;50.720;-2.084;2024-02-23T14:09:29;1.83;;;0.50;;
64282;SDS011;50497;50.720;-2.084;2024-02-23T14:11:55;2.25;;;0.73;;
64282;SDS011;50497;50.720;-2.084;2024-02-23T14:14:20;0.93;;;0.35;;
64282;SDS011;50497;50.720;-2.084;2024-02-23T14:16:46;1.35;;;0.43;;
64282;SDS011;50497;50.720;-2.084;2024-02-23T14:19:11;3.83;;;0.80;;
64282;SDS011;50497;50.720;-2.084;2024-02-23T14:21:37;1.73;;;0.32;;
64282;SDS011;50497;50.720;-2.084;2024-02-23T14:24:02;1.83;;;0.80;;
64282;SDS011;50497;50.720;-2.084;2024-02-23T14:26:29;2.67;;;0.50;;
64282;SDS011;50497;50.720;-2.084;2024-02-23T14:28:54;1.98;;;0.47;;
64282;SDS011;50497;50.720;-2.084;2024-02-23T14:31:20;1.63;;;0.52;;
64282;SDS011;50497;50.720;-2.084;2024-02-23T14:33:45;2.00;;;0.93;;
64282;SDS011;50497;50.720;-2.084;2024-02-23T14:36:10;0.98;;;0.70;;
64282;SDS011;50497;50.720;-2.084;2024-02-23T14:38:36;1.38;;;0.22;;
64282;SDS011;50497;50.720;-2.084;2024-02-23T14:41:02;1.77;;;0.82;;
64282;SDS011;50497;50.720;-2.084;2024-02-23T14:43:27;4.47;;;0.90;;
64282;SDS011;50497;50.720;-2.084;2024-02-23T14:45:56;1.17;;;0.60;;
64282;SDS011;50497;50.720;-2.084;2024-02-23T14:48:22;2.05;;;0.70;;
64282;SDS011;50497;50.720;-2.084;2024-02-23T14:50:47;0.90;;;0.40;;